Time;durP1;ratioP1;P1;durP2;ratioP2;P2;SDS_P1;SDS_P2;PMS_P1;PMS_P2;Temp;Humidity;BMP_temperature;BMP_pressure;BME280_temperature;BME280_humidity;BME280_pressure;Samples;Min_cycle;Max_cycle;Signal;HPM_P1;HPM_P2
2021/12/15 02:15:59;;;;;;;9.23;4.13;;;;;;;2.06;100.00;95226.03;5447577;23;20048;-83
2021/12/15 02:18:27;;;;;;;9.50;4.22;;;;;;;2.16;100.00;95224.88;4905212;29;20100;-83
2021/12/15 02:21:05;;;;;;;7.50;3.95;;;;;;;2.25;100.00;95216.75;4922002;29;20122;-83
2021/12/15 02:23:37;;;;;;;8.13;3.47;;;;;;;2.22;100.00;95226.69;4894081;29;20070;-84
2021/12/15 02:26:10;;;;;;;6.53;3.47;;;;;;;2.11;100.00;95226.25;4903308;29;20441;-83
2021/12/15 02:28:38;;;;;;;8.40;3.85;;;;;;;1.92;100.00;95227.72;4902186;29;20119;-83
2021/12/15 02:31:22;;;;;;;9.30;3.78;;;;;;;2.02;100.00;95229.19;4901854;29;20042;-84
2021/12/15 02:39:01;;;;;;;6.00;2.92;;;;;;;1.93;100.00;95225.97;4904433;29;20042;-83
2021/12/15 02:41:29;;;;;;;9.40;3.22;;;;;;;1.87;100.00;95221.56;4904777;29;20043;-83
2021/12/15 02:44:02;;;;;;;5.50;2.83;;;;;;;1.85;100.00;95224.34;4905664;29;20032;-83
2021/12/15 02:46:30;;;;;;;4.35;2.65;;;;;;;1.75;100.00;95213.53;4904796;29;20426;-83
2021/12/15 02:48:55;;;;;;;5.00;2.78;;;;;;;1.89;100.00;95228.13;4889181;29;20039;-83
2021/12/15 02:51:22;;;;;;;9.02;3.10;;;;;;;1.93;100.00;95218.22;4904587;29;20092;-83
2021/12/15 02:53:47;;;;;;;7.78;3.45;;;;;;;1.87;100.00;95229.31;4904478;29;20353;-83
2021/12/15 02:56:14;;;;;;;6.38;3.58;;;;;;;1.86;100.00;95230.28;4920082;29;20046;-83
2021/12/15 02:58:49;;;;;;;7.00;3.17;;;;;;;1.78;100.00;95226.06;4904557;29;20036;-83
2021/12/15 03:01:22;;;;;;;6.30;2.97;;;;;;;1.81;100.00;95226.50;4889867;29;20079;-83
2021/12/15 03:04:09;;;;;;;6.32;3.05;;;;;;;1.84;100.00;95223.53;4889621;29;20353;-83
2021/12/15 03:06:41;;;;;;;6.57;3.63;;;;;;;1.83;100.00;95224.50;4906986;29;20032;-83
2021/12/15 03:17:07;;;;;;;6.28;3.25;;;;;;;1.82;100.00;95219.56;4920099;29;20139;-83
2021/12/15 03:19:38;;;;;;;6.72;3.33;;;;;;;1.72;100.00;95217.28;4904208;29;20106;-83
2021/12/15 03:22:09;;;;;;;13.07;3.92;;;;;;;1.62;100.00;95222.03;4903979;29;20433;-83
2021/12/15 03:24:35;;;;;;;6.43;2.97;;;;;;;1.71;100.00;95228.63;4919787;29;20039;-83
2021/12/15 03:27:05;;;;;;;4.85;2.67;;;;;;;1.73;100.00;95226.66;4888272;29;20032;-83
2021/12/15 03:35:18;;;;;;;5.70;3.08;;;;;;;1.72;100.00;95226.84;4906377;29;20051;-83
2021/12/15 03:37:48;;;;;;;5.72;3.22;;;;;;;1.77;100.00;95229.66;4905782;29;20032;-83
2021/12/15 03:40:16;;;;;;;8.55;3.35;;;;;;;1.75;100.00;95226.47;4920741;29;20024;-83
2021/12/15 03:42:58;;;;;;;6.75;3.60;;;;;;;1.60;100.00;95231.75;4903493;29;20051;-83
2021/12/15 03:45:30;;;;;;;5.43;3.30;;;;;;;1.53;100.00;95235.06;4888037;29;20036;-83
2021/12/15 03:48:00;;;;;;;7.03;3.65;;;;;;;1.62;100.00;95232.34;4920686;29;20035;-83
2021/12/15 03:50:27;;;;;;;7.78;4.07;;;;;;;1.75;100.00;95232.44;4903564;29;20059;-83
2021/12/15 03:52:52;;;;;;;9.70;3.75;;;;;;;1.76;100.00;95223.69;4903276;29;20413;-83
2021/12/15 03:55:23;;;;;;;6.35;3.42;;;;;;;1.71;100.00;95241.53;4903552;29;20065;-83
2021/12/15 03:57:49;;;;;;;5.32;3.05;;;;;;;1.66;100.00;95242.13;4887979;29;20049;-83
2021/12/15 04:00:16;;;;;;;7.63;3.13;;;;;;;1.63;100.00;95234.72;4900346;29;20032;-83
2021/12/15 04:02:42;;;;;;;8.30;3.80;;;;;;;1.63;100.00;95239.13;4889820;29;20168;-83
2021/12/15 04:05:10;;;;;;;6.07;3.30;;;;;;;1.61;100.00;95228.97;4885714;29;20036;-83
2021/12/15 04:07:37;;;;;;;8.45;3.35;;;;;;;1.95;100.00;95237.72;4903381;29;20429;-83
2021/12/15 04:10:05;;;;;;;6.47;3.55;;;;;;;1.78;100.00;95236.41;4887751;29;20035;-83
2021/12/15 04:12:30;;;;;;;6.53;3.50;;;;;;;1.83;100.00;95245.19;4884301;29;20119;-83
2021/12/15 04:15:06;;;;;;;8.68;3.15;;;;;;;1.73;100.00;95238.78;4884522;29;20107;-83
2021/12/15 04:17:34;;;;;;;5.70;2.95;;;;;;;1.71;100.00;95243.34;4886179;29;20115;-83
2021/12/15 04:20:15;;;;;;;7.18;3.22;;;;;;;1.70;100.00;95237.34;4884729;29;20446;-83
2021/12/15 04:22:41;;;;;;;7.03;3.25;;;;;;;1.64;100.00;95251.03;4868884;29;20028;-83
2021/12/15 04:25:23;;;;;;;6.40;3.00;;;;;;;1.53;100.00;95249.78;4885906;29;20064;-83
2021/12/15 04:27:58;;;;;;;4.82;2.40;;;;;;;1.35;100.00;95250.25;4888496;29;20430;-83
2021/12/15 04:30:24;;;;;;;3.78;2.40;;;;;;;1.18;100.00;95254.88;4888345;29;20036;-83
2021/12/15 04:32:50;;;;;;;4.60;2.63;;;;;;;1.26;100.00;95252.16;4888070;29;20127;-83
2021/12/15 04:35:16;;;;;;;7.40;2.80;;;;;;;1.46;100.00;95254.09;4888227;29;20156;-83
2021/12/15 04:37:43;;;;;;;5.70;2.45;;;;;;;1.47;100.00;95256.50;4905020;29;20057;-83
2021/12/15 04:40:11;;;;;;;5.40;2.47;;;;;;;1.45;100.00;95252.50;4888240;29;20028;-83
2021/12/15 04:42:38;;;;;;;5.35;2.50;;;;;;;1.63;100.00;95252.81;4887721;29;20052;-83
2021/12/15 04:45:07;;;;;;;7.45;3.03;;;;;;;1.47;100.00;95256.50;4872939;29;20036;-83
2021/12/15 04:47:33;;;;;;;4.40;2.83;;;;;;;1.39;100.00;95257.44;4888108;29;20039;-83
2021/12/15 04:49:59;;;;;;;5.88;2.83;;;;;;;1.47;100.00;95259.06;4888201;29;20032;-85
2021/12/15 04:52:28;;;;;;;5.75;2.70;;;;;;;1.34;100.00;95264.13;4887733;29;20036;-83
2021/12/15 04:54:55;;;;;;;6.60;2.45;;;;;;;1.37;100.00;95266.34;4889310;29;20032;-84
2021/12/15 04:57:21;;;;;;;6.00;2.80;;;;;;;1.31;100.00;95260.13;4887830;29;20032;-83
2021/12/15 04:59:47;;;;;;;10.52;3.20;;;;;;;1.38;100.00;95270.53;4887856;29;20050;-83
2021/12/15 05:02:14;;;;;;;7.75;3.40;;;;;;;1.29;100.00;95263.88;4902895;29;20446;-83
2021/12/15 05:04:40;;;;;;;5.93;3.15;;;;;;;1.31;100.00;95267.09;4904368;29;20028;-84
2021/12/15 05:07:06;;;;;;;5.85;3.20;;;;;;;1.17;100.00;95263.59;4887657;29;20331;-83
2021/12/15 05:09:32;;;;;;;8.23;3.70;;;;;;;1.13;100.00;95263.97;4920239;29;20032;-85
2021/12/15 05:11:58;;;;;;;6.75;3.08;;;;;;;1.13;100.00;95270.91;4905773;29;20051;-85
2021/12/15 05:14:24;;;;;;;7.95;3.28;;;;;;;1.27;100.00;95275.19;4890523;29;20067;-83
2021/12/15 05:16:51;;;;;;;9.25;3.80;;;;;;;1.33;100.00;95270.28;4905990;29;20131;-84
2021/12/15 05:19:18;;;;;;;7.30;3.83;;;;;;;1.40;100.00;95276.28;4906206;29;20056;-85
2021/12/15 05:21:44;;;;;;;9.93;4.90;;;;;;;1.55;100.00;95273.63;4913642;29;20039;-84
2021/12/15 05:24:52;;;;;;;12.60;4.72;;;;;;;1.58;100.00;95278.41;4906039;29;20032;-83
2021/12/15 05:27:00;;;;;;;11.07;5.45;;;;;;;1.62;100.00;95282.22;4901616;29;20028;-84
2021/12/15 05:29:27;;;;;;;8.88;4.53;;;;;;;1.54;100.00;95287.53;4922734;29;20433;-84
2021/12/15 05:31:53;;;;;;;8.98;4.43;;;;;;;1.46;100.00;95287.66;4905505;29;20098;-84
2021/12/15 05:34:20;;;;;;;8.93;5.13;;;;;;;1.65;100.00;95287.03;4905892;29;20024;-84
2021/12/15 05:36:46;;;;;;;9.68;4.93;;;;;;;1.46;100.00;95285.06;4905577;29;20028;-84
2021/12/15 05:39:12;;;;;;;15.00;5.68;;;;;;;1.44;100.00;95285.28;4905930;29;20031;-84
2021/12/15 05:41:37;;;;;;;12.40;5.75;;;;;;;1.44;100.00;95287.88;4905468;29;20028;-83
2021/12/15 05:44:05;;;;;;;9.25;5.00;;;;;;;1.32;100.00;95287.56;4922562;29;20028;-84
2021/12/15 05:46:30;;;;;;;11.07;5.53;;;;;;;1.36;100.00;95296.53;4905665;29;20505;-85
2021/12/15 05:48:57;;;;;;;15.68;6.80;;;;;;;1.45;100.00;95289.47;4905531;29;20115;-83
2021/12/15 05:51:23;;;;;;;14.02;6.78;;;;;;;1.32;100.00;95297.09;4900616;29;20080;-85
2021/12/15 05:53:48;;;;;;;13.45;6.35;;;;;;;1.35;100.00;95294.91;4893648;29;20115;-83
2021/12/15 05:56:14;;;;;;;14.73;7.18;;;;;;;1.60;100.00;95302.28;4888084;29;20032;-83
2021/12/15 05:58:40;;;;;;;10.55;6.03;;;;;;;1.34;100.00;95311.41;4875167;29;20365;-84
2021/12/15 06:01:06;;;;;;;15.07;6.38;;;;;;;1.49;100.00;95311.34;4922343;29;20070;-83
2021/12/15 06:03:31;;;;;;;12.73;6.50;;;;;;;1.45;100.00;95307.53;4905060;29;20063;-84
2021/12/15 06:05:57;;;;;;;12.00;6.28;;;;;;;1.29;100.00;95315.53;4921300;29;20020;-84
2021/12/15 06:08:23;;;;;;;12.77;7.10;;;;;;;1.25;100.00;95317.69;4905329;29;20028;-85
2021/12/15 06:10:48;;;;;;;14.20;6.43;;;;;;;1.38;100.00;95317.00;4890048;29;20024;-83
2021/12/15 06:13:14;;;;;;;13.25;7.20;;;;;;;1.47;100.00;95321.06;4905133;29;20039;-85
2021/12/15 06:15:41;;;;;;;12.45;6.05;;;;;;;1.56;100.00;95316.56;4889704;29;20581;-85
2021/12/15 06:18:10;;;;;;;11.10;6.05;;;;;;;1.60;100.00;95319.56;4922177;29;20024;-85
2021/12/15 06:20:36;;;;;;;10.02;5.68;;;;;;;1.63;100.00;95319.97;4889823;29;20028;-85
2021/12/15 06:23:09;;;;;;;11.68;6.50;;;;;;;1.59;100.00;95317.97;4889214;29;20027;-85
2021/12/15 06:25:35;;;;;;;13.00;6.85;;;;;;;1.59;100.00;95318.75;4890481;29;20056;-85
2021/12/15 06:28:01;;;;;;;12.77;7.10;;;;;;;1.65;100.00;95322.38;4889691;29;20032;-85
2021/12/15 06:30:29;;;;;;;17.10;7.03;;;;;;;1.59;100.00;95323.94;4903274;29;20028;-86
2021/12/15 06:32:55;;;;;;;12.40;6.65;;;;;;;1.50;100.00;95327.63;4889149;29;20067;-85
2021/12/15 06:35:21;;;;;;;17.95;7.28;;;;;;;1.62;100.00;95327.94;4905006;29;20067;-85
2021/12/15 06:37:46;;;;;;;12.40;6.50;;;;;;;1.52;100.00;95321.28;4920684;29;20031;-85
2021/12/15 06:40:13;;;;;;;10.77;6.32;;;;;;;1.37;100.00;95330.91;4904862;29;20028;-85
2021/12/15 06:42:40;;;;;;;10.95;6.55;;;;;;;1.36;100.00;95331.88;4904364;29;20445;-86
2021/12/15 06:45:07;;;;;;;13.48;7.82;;;;;;;1.53;100.00;95330.63;4889257;29;20445;-85
2021/12/15 06:58:31;;;;;;;16.50;7.70;;;;;;;0.79;100.00;95337.69;4907120;29;20080;-85
2021/12/15 07:00:59;;;;;;;16.20;8.52;;;;;;;0.88;100.00;95334.97;4887023;29;20028;-85
2021/12/15 07:03:25;;;;;;;14.80;8.05;;;;;;;0.93;100.00;95346.38;4903742;29;20438;-85
2021/12/15 07:05:52;;;;;;;14.30;8.30;;;;;;;0.93;100.00;95350.72;4903168;29;20027;-85
2021/12/15 07:08:19;;;;;;;15.15;7.53;;;;;;;0.95;100.00;95346.97;4902346;29;20032;-85
2021/12/15 07:10:47;;;;;;;19.40;8.95;;;;;;;0.94;100.00;95353.13;4870161;29;20036;-84
2021/12/15 07:13:14;;;;;;;14.77;8.13;;;;;;;1.03;100.00;95353.81;4885077;29;20046;-85
2021/12/15 07:15:39;;;;;;;16.52;8.18;;;;;;;1.10;100.00;95344.38;4870017;29;20130;-85
2021/12/15 07:18:09;;;;;;;13.75;7.25;;;;;;;1.13;100.00;95353.50;4885486;29;20394;-85
2021/12/15 07:20:49;;;;;;;12.10;6.85;;;;;;;1.23;100.00;95356.59;4901143;29;20123;-85
2021/12/15 07:23:18;;;;;;;15.55;7.68;;;;;;;1.33;100.00;95360.66;4886894;29;20029;-85
2021/12/15 07:25:46;;;;;;;11.90;7.10;;;;;;;1.46;100.00;95362.56;4869604;29;20031;-85
2021/12/15 07:28:13;;;;;;;11.95;6.38;;;;;;;1.58;100.00;95362.84;4870053;29;20426;-85
2021/12/15 07:30:38;;;;;;;15.77;7.10;;;;;;;1.73;100.00;95366.19;4869954;29;20442;-85
2021/12/15 07:33:06;;;;;;;10.80;6.43;;;;;;;1.88;100.00;95366.09;4901439;29;20032;-85
2021/12/15 07:35:32;;;;;;;11.85;6.05;;;;;;;2.02;100.00;95369.59;4869554;29;20028;-85
2021/12/15 07:37:57;;;;;;;15.23;6.70;;;;;;;2.04;100.00;95369.38;4901872;29;20343;-85
2021/12/15 07:40:24;;;;;;;12.05;6.43;;;;;;;2.01;100.00;95369.75;4885118;29;20028;-85
2021/12/15 07:43:08;;;;;;;10.73;5.78;;;;;;;2.05;100.00;95366.63;4884582;29;20377;-85
2021/12/15 07:45:45;;;;;;;10.27;5.63;;;;;;;2.06;100.00;95375.97;4870838;29;20098;-85
2021/12/15 07:48:15;;;;;;;11.15;6.10;;;;;;;2.11;100.00;95378.00;4884980;29;20032;-85
2021/12/15 07:50:46;;;;;;;13.60;6.15;;;;;;;2.18;100.00;95373.66;4885020;29;20029;-85
2021/12/15 07:53:13;;;;;;;8.75;4.80;;;;;;;2.26;100.00;95380.47;4884573;29;20028;-85
2021/12/15 07:55:39;;;;;;;10.95;5.40;;;;;;;2.46;100.00;95387.56;4869436;29;20065;-85
2021/12/15 07:58:06;;;;;;;12.75;5.75;;;;;;;2.44;100.00;95398.09;4884959;29;20028;-85
2021/12/15 08:00:34;;;;;;;10.10;5.40;;;;;;;2.38;100.00;95393.69;4884643;29;20080;-85
2021/12/15 08:02:59;;;;;;;10.95;5.35;;;;;;;2.43;100.00;95390.50;4869170;29;20033;-85
2021/12/15 08:05:26;;;;;;;12.48;5.95;;;;;;;2.68;100.00;95396.03;4884889;29;20323;-85
2021/12/15 08:07:51;;;;;;;11.30;5.68;;;;;;;2.66;100.00;95409.16;4884729;29;20361;-85
2021/12/15 08:10:17;;;;;;;10.25;5.45;;;;;;;2.65;100.00;95410.13;4884779;29;20113;-85
2021/12/15 08:12:44;;;;;;;13.23;6.82;;;;;;;2.76;100.00;95415.78;4884318;29;20032;-85
2021/12/15 08:15:10;;;;;;;12.30;6.05;;;;;;;2.75;100.00;95403.81;4884576;29;20028;-85
2021/12/15 08:17:37;;;;;;;13.63;6.20;;;;;;;2.87;100.00;95409.25;4884777;29;20028;-85
2021/12/15 08:20:05;;;;;;;10.63;5.90;;;;;;;2.75;100.00;95409.78;4884689;29;20032;-85
2021/12/15 08:22:30;;;;;;;13.00;6.22;;;;;;;2.76;100.00;95413.97;4884149;29;20331;-86
2021/12/15 08:24:56;;;;;;;10.70;5.93;;;;;;;2.81;100.00;95413.41;4869339;29;20032;-86
2021/12/15 08:27:21;;;;;;;10.25;4.75;;;;;;;2.82;100.00;95415.00;4901369;29;20112;-85
2021/12/15 08:29:47;;;;;;;8.70;4.70;;;;;;;2.86;100.00;95413.59;4884613;29;20053;-85
2021/12/15 08:32:12;;;;;;;10.75;5.47;;;;;;;3.01;100.00;95412.69;4900810;29;20028;-85
2021/12/15 08:34:37;;;;;;;10.00;5.30;;;;;;;3.01;100.00;95412.69;4884601;29;20068;-85
2021/12/15 08:37:03;;;;;;;10.90;5.55;;;;;;;3.17;100.00;95412.34;4901182;29;20426;-85
2021/12/15 08:39:29;;;;;;;10.95;5.10;;;;;;;3.17;100.00;95412.34;4884580;29;20091;-83
2021/12/15 08:41:54;;;;;;;10.32;5.03;;;;;;;3.20;100.00;95405.97;4884117;29;20342;-83
2021/12/15 08:44:19;;;;;;;10.88;4.85;;;;;;;3.27;100.00;95406.00;4884532;29;20454;-83
2021/12/15 08:46:47;;;;;;;11.70;5.20;;;;;;;3.39;100.00;95417.38;4884325;29;20111;-83
2021/12/15 08:49:16;;;;;;;8.65;4.60;;;;;;;3.48;100.00;95418.00;4869209;29;20054;-85
2021/12/15 08:51:45;;;;;;;9.05;4.85;;;;;;;3.59;100.00;95414.84;4883974;29;20036;-83
2021/12/15 08:54:14;;;;;;;10.98;4.90;;;;;;;3.66;100.00;95418.25;4884412;29;20053;-83
2021/12/15 08:56:41;;;;;;;7.28;4.30;;;;;;;3.67;100.00;95417.25;4884361;29;20434;-85
2021/12/15 08:59:07;;;;;;;9.23;3.92;;;;;;;3.75;100.00;95421.44;4884352;29;20029;-83
2021/12/15 09:01:32;;;;;;;8.35;3.70;;;;;;;3.80;100.00;95419.06;4883991;29;20032;-83
2021/12/15 09:03:58;;;;;;;6.65;3.90;;;;;;;3.86;100.00;95408.88;4869032;29;20056;-85
2021/12/15 09:06:24;;;;;;;9.85;4.60;;;;;;;3.89;100.00;95421.47;4884427;29;20419;-85
2021/12/15 09:08:50;;;;;;;5.07;2.90;;;;;;;3.93;100.00;95415.66;4884223;29;20081;-83
2021/12/15 09:11:20;;;;;;;6.72;3.50;;;;;;;3.89;100.00;95421.47;4885582;29;20028;-85
2021/12/15 09:13:50;;;;;;;8.70;3.92;;;;;;;3.87;100.00;95426.84;4904121;29;20438;-83
2021/12/15 09:16:16;;;;;;;6.43;3.47;;;;;;;3.85;100.00;95426.25;4887607;29;20048;-85
2021/12/15 09:18:44;;;;;;;7.28;3.83;;;;;;;3.85;100.00;95422.84;4887615;29;20465;-85
2021/12/15 09:21:10;;;;;;;6.65;3.47;;;;;;;3.86;100.00;95417.47;4887527;29;20033;-83
2021/12/15 09:23:36;;;;;;;6.03;2.97;;;;;;;3.89;100.00;95424.06;4903856;29;20439;-85
2021/12/15 09:26:03;;;;;;;5.78;3.00;;;;;;;3.92;100.00;95424.44;4887590;29;20103;-85
2021/12/15 09:28:32;;;;;;;6.38;3.33;;;;;;;3.98;100.00;95422.84;4887418;29;20521;-85
2021/12/15 09:30:58;;;;;;;5.40;2.75;;;;;;;4.05;100.00;95425.44;4888045;29;20443;-85
2021/12/15 09:33:28;;;;;;;4.72;2.20;;;;;;;3.99;100.00;95429.63;4886986;29;20025;-85
2021/12/15 09:35:53;;;;;;;4.82;2.30;;;;;;;3.98;100.00;95435.81;4887102;29;20039;-85
2021/12/15 09:38:20;;;;;;;5.25;2.55;;;;;;;4.00;100.00;95439.00;4887124;29;20350;-85
2021/12/15 09:40:47;;;;;;;4.30;2.50;;;;;;;3.99;100.00;95442.59;4871926;29;20055;-84
2021/12/15 09:43:14;;;;;;;6.70;2.60;;;;;;;4.02;100.00;95437.03;4886723;29;20348;-85
2021/12/15 09:45:52;;;;;;;5.05;2.17;;;;;;;4.10;100.00;95439.41;4871789;29;20311;-85
2021/12/15 10:04:26;;;;;;;6.07;2.80;;;;;;;4.80;100.00;95434.75;4887688;29;20084;-85
2021/12/15 10:18:08;;;;;;;4.72;2.60;;;;;;;5.34;100.00;95431.97;4889140;29;20525;-85
2021/12/15 10:20:38;;;;;;;5.78;2.55;;;;;;;5.36;100.00;95430.72;4886592;29;20029;-85
2021/12/15 10:23:07;;;;;;;8.73;2.90;;;;;;;5.43;100.00;95422.91;4901634;29;20028;-85
2021/12/15 10:25:37;;;;;;;6.80;3.63;;;;;;;5.60;100.00;95431.00;4886483;29;20025;-85
2021/12/15 10:28:06;;;;;;;11.32;4.45;;;;;;;5.75;100.00;95441.13;4886695;29;20032;-85
2021/12/15 10:30:42;;;;;;;9.23;4.43;;;;;;;5.99;100.00;95436.16;4886169;29;20048;-85
2021/12/15 10:33:23;;;;;;;9.50;4.07;;;;;;;5.94;100.00;95439.38;4885908;29;20035;-85
2021/12/15 10:36:01;;;;;;;10.57;4.35;;;;;;;5.94;100.00;95430.78;4886325;29;20060;-85
2021/12/15 10:38:32;;;;;;;8.32;4.07;;;;;;;5.93;100.00;95429.97;4886435;29;20514;-86
2021/12/15 10:41:13;;;;;;;7.38;4.43;;;;;;;5.98;100.00;95433.78;4886181;29;20183;-86
2021/12/15 10:43:54;;;;;;;6.88;4.22;;;;;;;6.12;100.00;95437.09;4885909;29;20059;-85
2021/12/15 10:46:39;;;;;;;8.80;3.80;;;;;;;6.34;100.00;95432.31;4886022;29;20584;-85
2021/12/15 10:49:15;;;;;;;7.00;3.72;;;;;;;6.38;100.00;95435.28;4885940;29;20367;-85
2021/12/15 10:51:41;;;;;;;8.45;3.58;;;;;;;6.43;100.00;95431.03;4885592;29;20060;-85
2021/12/15 10:54:23;;;;;;;5.80;3.58;;;;;;;6.59;100.00;95439.31;4902637;29;20028;-85
2021/12/15 10:56:53;;;;;;;6.90;3.10;;;;;;;6.56;100.00;95430.09;4870555;29;20029;-85
2021/12/15 10:59:20;;;;;;;6.68;3.45;;;;;;;6.70;100.00;95429.97;4886326;29;20342;-85
2021/12/15 11:01:57;;;;;;;8.95;3.70;;;;;;;6.64;100.00;95435.03;4885380;29;20024;-85
2021/12/15 11:04:38;;;;;;;6.63;3.30;;;;;;;6.67;100.00;95431.22;4902441;29;20075;-85
2021/12/15 11:07:07;;;;;;;7.07;3.90;;;;;;;6.68;100.00;95430.22;4902386;29;20430;-85
2021/12/15 11:09:39;;;;;;;6.90;3.80;;;;;;;6.72;100.00;95439.19;4885602;29;20047;-85
2021/12/15 11:12:27;;;;;;;6.65;3.70;;;;;;;6.77;100.00;95431.50;4885332;29;20055;-85
2021/12/15 11:14:56;;;;;;;6.38;3.67;;;;;;;6.74;100.00;95428.53;4885479;29;20030;-85
2021/12/15 11:17:25;;;;;;;6.97;3.80;;;;;;;6.86;100.00;95439.81;4870167;29;20092;-85
2021/12/15 11:19:55;;;;;;;9.82;3.90;;;;;;;7.06;100.00;95446.66;4885512;29;20041;-85
2021/12/15 11:22:49;;;;;;;8.85;4.57;;;;;;;7.06;100.00;95444.81;4901981;29;20043;-85
2021/12/15 11:25:59;;;;;;;7.88;4.57;;;;;;;7.10;100.00;95449.59;4885567;29;20033;-85
2021/12/15 11:28:29;;;;;;;13.48;3.78;;;;;;;7.18;100.00;95446.69;4901893;29;20039;-85
2021/12/15 11:31:08;;;;;;;5.82;3.42;;;;;;;7.28;100.00;95443.56;4885252;29;20453;-86
2021/12/15 11:33:41;;;;;;;8.32;4.50;;;;;;;7.32;100.00;95444.75;4884686;29;20040;-85
2021/12/15 11:36:25;;;;;;;8.70;4.57;;;;;;;7.40;100.00;95436.59;4891352;29;20500;-85
2021/12/15 11:38:57;;;;;;;8.32;4.60;;;;;;;7.30;100.00;95444.94;4895189;29;20303;-85
2021/12/15 11:41:24;;;;;;;9.20;4.50;;;;;;;7.34;100.00;95445.31;4909439;29;20072;-85
2021/12/15 11:43:55;;;;;;;9.43;4.47;;;;;;;7.41;100.00;95446.00;4885008;29;20055;-85
2021/12/15 11:46:30;;;;;;;8.88;4.53;;;;;;;7.39;100.00;95444.63;4901774;29;20097;-85
2021/12/15 11:49:07;;;;;;;7.20;4.40;;;;;;;7.44;100.00;95442.97;4885159;29;20517;-85
2021/12/15 11:51:38;;;;;;;8.63;5.00;;;;;;;7.61;100.00;95442.38;4869247;29;20059;-84
2021/12/15 11:54:21;;;;;;;8.50;5.00;;;;;;;7.54;100.00;95450.28;4885153;29;20032;-85
2021/12/15 11:56:58;;;;;;;10.73;4.68;;;;;;;7.69;100.00;95446.47;4884946;29;20084;-85
2021/12/15 11:59:29;;;;;;;7.85;4.93;;;;;;;7.65;100.00;95438.28;4901629;29;20074;-85
2021/12/15 12:02:10;;;;;;;9.68;5.32;;;;;;;7.77;100.00;95444.34;4891113;29;20094;-85
2021/12/15 12:04:43;;;;;;;10.15;5.68;;;;;;;7.86;100.00;95441.41;4920696;29;20039;-85
2021/12/15 12:07:09;;;;;;;;;;;;;;;8.01;100.00;95439.16;4904029;29;20460;-85
2021/12/15 12:09:38;;;;;;;10.88;5.35;;;;;;;7.99;100.00;95428.16;4903691;29;19918;-85
2021/12/15 12:12:05;;;;;;;9.35;5.15;;;;;;;8.04;100.00;95430.91;4903323;29;20032;-85
2021/12/15 12:14:40;;;;;;;10.77;5.40;;;;;;;8.12;100.00;95434.19;4887966;29;20040;-85
2021/12/15 12:17:13;;;;;;;10.50;5.45;;;;;;;8.16;100.00;95432.72;4889019;29;20039;-85
2021/12/15 12:19:45;;;;;;;12.32;5.03;;;;;;;8.16;100.00;95425.69;4903779;29;20040;-85
2021/12/15 12:22:12;;;;;;;13.07;5.72;;;;;;;8.20;100.00;95426.84;4903162;29;20044;-85
2021/12/15 12:24:38;;;;;;;10.98;5.40;;;;;;;8.17;100.00;95426.47;4887589;29;20043;-85
2021/12/15 12:27:06;;;;;;;13.27;6.63;;;;;;;8.29;100.00;95424.69;4919040;29;20425;-85
2021/12/15 12:29:32;;;;;;;14.25;6.82;;;;;;;8.29;100.00;95424.69;4888006;29;20043;-85
2021/12/15 12:31:58;;;;;;;13.63;7.20;;;;;;;8.38;100.00;95429.59;4902847;29;20457;-85
2021/12/15 12:34:23;;;;;;;15.60;7.15;;;;;;;8.41;100.00;95427.31;4903301;29;20068;-85
2021/12/15 12:36:49;;;;;;;13.55;7.25;;;;;;;8.37;100.00;95420.94;4920097;29;20036;-85
2021/12/15 12:39:17;;;;;;;15.07;8.50;;;;;;;8.35;100.00;95418.56;4903304;29;20339;-85
2021/12/15 12:41:48;;;;;;;17.42;9.10;;;;;;;8.37;100.00;95412.31;4887455;29;20047;-85
2021/12/15 12:44:15;;;;;;;17.77;9.27;;;;;;;8.23;100.00;95409.94;4903351;29;20071;-85
2021/12/15 12:46:52;;;;;;;15.98;9.13;;;;;;;8.21;100.00;95404.16;4905309;29;20034;-85
2021/12/15 13:00:33;;;;;;;16.98;9.55;;;;;;;8.39;100.00;95407.66;4907101;29;20032;-85
2021/12/15 13:03:14;;;;;;;17.00;9.45;;;;;;;8.33;100.00;95412.78;4906435;29;20080;-85
2021/12/15 13:05:51;;;;;;;16.08;9.07;;;;;;;8.25;100.00;95412.31;4906703;29;20032;-85
2021/12/15 13:08:31;;;;;;;15.23;8.85;;;;;;;8.19;100.00;95412.19;4906596;29;20126;-85
2021/12/15 13:11:34;;;;;;;17.23;9.23;;;;;;;8.08;100.00;95412.97;4906725;29;20028;-85
2021/12/15 13:14:09;;;;;;;20.90;9.90;;;;;;;7.93;100.00;95410.81;4917248;29;20078;-85
2021/12/15 13:16:44;;;;;;;16.25;9.25;;;;;;;7.80;100.00;95416.22;4906247;29;20414;-85
2021/12/15 13:19:28;;;;;;;18.40;10.25;;;;;;;7.76;100.00;95408.03;4888039;29;20025;-86
2021/12/15 13:30:52;;;;;;;18.63;11.02;;;;;;;7.45;100.00;95413.25;4907217;29;20031;-86
2021/12/15 13:33:42;;;;;;;22.45;11.93;;;;;;;7.41;100.00;95414.72;4905695;29;20024;-85
2021/12/15 13:36:20;;;;;;;24.08;11.30;;;;;;;7.32;100.00;95416.84;4906102;29;20035;-86
2021/12/15 13:38:54;;;;;;;47.88;25.95;;;;;;;7.25;100.00;95416.16;4893752;29;20033;-85
2021/12/15 13:41:48;;;;;;;24.48;13.00;;;;;;;7.25;100.00;95416.16;4887310;29;20029;-85
2021/12/15 13:44:43;;;;;;;33.20;16.80;;;;;;;7.20;100.00;95419.41;4878668;29;20442;-85
2021/12/15 13:47:13;;;;;;;30.52;17.33;;;;;;;7.12;100.00;95418.91;4887270;29;20076;-84
2021/12/15 13:49:48;;;;;;;40.80;23.13;;;;;;;6.92;100.00;95407.72;4903873;29;20098;-84
2021/12/15 13:52:34;;;;;;;33.30;18.38;;;;;;;6.86;100.00;95413.78;4891035;29;20028;-85
2021/12/15 13:54:59;;;;;;;31.60;18.08;;;;;;;6.71;100.00;95408.94;4890377;29;20032;-85
2021/12/15 13:57:36;;;;;;;37.22;18.67;;;;;;;6.67;100.00;95414.78;4903879;29;20039;-85
2021/12/15 14:00:22;;;;;;;30.50;15.88;;;;;;;6.62;100.00;95412.81;4921297;29;20077;-85
2021/12/15 14:03:05;;;;;;;30.15;17.05;;;;;;;6.55;100.00;95410.28;4890071;29;20337;-86
2021/12/15 14:05:39;;;;;;;32.95;17.25;;;;;;;6.55;100.00;95418.09;4905442;29;20060;-86
2021/12/15 14:08:12;;;;;;;35.45;17.70;;;;;;;6.61;100.00;95426.88;4905610;29;20059;-86
2021/12/15 14:10:49;;;;;;;32.70;15.93;;;;;;;6.55;100.00;95425.13;4890052;29;20032;-86
2021/12/15 14:13:14;;;;;;;30.13;15.80;;;;;;;6.32;100.00;95429.94;4919847;29;20107;-85
2021/12/15 14:15:42;;;;;;;30.08;14.93;;;;;;;6.40;100.00;95430.66;4888913;29;20056;-85
2021/12/15 14:18:11;;;;;;;28.40;15.93;;;;;;;6.34;100.00;95440.13;4922071;29;20028;-85
2021/12/15 14:20:47;;;;;;;28.58;14.95;;;;;;;5.99;100.00;95433.56;4901249;29;20038;-86
2021/12/15 14:23:43;;;;;;;30.38;16.20;;;;;;;5.84;100.00;95439.06;4903111;29;20033;-85
2021/12/15 14:26:13;;;;;;;29.67;16.65;;;;;;;5.64;100.00;95426.19;4914463;29;20031;-85
2021/12/15 14:28:45;;;;;;;31.20;16.25;;;;;;;5.48;100.00;95436.09;4905043;29;20036;-85
2021/12/15 14:31:19;;;;;;;35.25;17.77;;;;;;;5.58;100.00;95434.81;4889562;29;20036;-85
2021/12/15 14:33:47;;;;;;;39.17;18.27;;;;;;;5.61;100.00;95442.22;4904983;29;20054;-85
2021/12/15 14:36:18;;;;;;;34.85;16.77;;;;;;;5.29;100.00;95442.97;4904901;29;20449;-85
2021/12/15 14:38:49;;;;;;;33.63;18.27;;;;;;;5.26;100.00;95452.97;4904985;29;20036;-85
2021/12/15 14:41:30;;;;;;;32.50;18.63;;;;;;;5.21;100.00;95450.97;4920646;29;20039;-85
2021/12/15 14:43:58;;;;;;;33.65;17.63;;;;;;;5.02;100.00;95450.84;4905046;29;20036;-85
2021/12/15 14:46:31;;;;;;;35.63;18.65;;;;;;;5.05;100.00;95447.06;4904777;29;20433;-85
2021/12/15 14:49:27;;;;;;;36.10;19.70;;;;;;;5.09;100.00;95449.06;4885563;29;20042;-85
2021/12/15 14:51:55;;;;;;;37.50;18.75;;;;;;;4.91;100.00;95460.09;4921330;29;20354;-85
2021/12/15 14:54:23;;;;;;;41.65;20.77;;;;;;;4.94;100.00;95461.47;4904430;29;20046;-85
2021/12/15 14:57:02;;;;;;;40.70;20.50;;;;;;;4.99;100.00;95455.66;4904551;29;20327;-85
2021/12/15 14:59:45;;;;;;;40.42;20.15;;;;;;;4.88;100.00;95455.31;4921461;29;20036;-85
2021/12/15 15:02:13;;;;;;;42.55;21.13;;;;;;;4.68;100.00;95463.13;4904083;29;20043;-85
2021/12/15 15:04:43;;;;;;;41.78;21.98;;;;;;;4.85;100.00;95473.09;4904590;29;20040;-85
2021/12/15 15:07:10;;;;;;;45.45;23.25;;;;;;;4.83;100.00;95475.88;4921160;29;20024;-85
2021/12/15 15:09:39;;;;;;;42.40;21.20;;;;;;;4.62;100.00;95474.31;4919433;29;20035;-85
2021/12/15 15:12:08;;;;;;;51.20;23.10;;;;;;;4.56;100.00;95468.13;4888792;29;20032;-85
2021/12/15 15:14:42;;;;;;;42.30;22.50;;;;;;;4.59;100.00;95478.13;4888913;29;20062;-85
2021/12/15 15:17:23;;;;;;;40.45;21.38;;;;;;;4.43;100.00;95473.31;4904303;29;20044;-85